sensor_id;sensor_type;location;lat;lon;timestamp;P1;durP1;ratioP1;P2;durP2;ratioP2
7191;SDS011;3637;51.494;11.958;2022-10-22T00:02:12;5.33;;;3.57;;
7191;SDS011;3637;51.494;11.958;2022-10-22T00:05:18;3.50;;;3.10;;
7191;SDS011;3637;51.494;11.958;2022-10-22T00:08:20;3.90;;;3.23;;
7191;SDS011;3637;51.494;11.958;2022-10-22T00:11:24;4.57;;;3.47;;
7191;SDS011;3637;51.494;11.958;2022-10-22T00:14:27;3.43;;;3.07;;
7191;SDS011;3637;51.494;11.958;2022-10-22T00:17:29;4.03;;;3.30;;
7191;SDS011;3637;51.494;11.958;2022-10-22T00:20:31;3.43;;;3.10;;
7191;SDS011;3637;51.494;11.958;2022-10-22T00:23:33;5.30;;;3.50;;
7191;SDS011;3637;51.494;11.958;2022-10-22T00:26:36;5.83;;;3.77;;
7191;SDS011;3637;51.494;11.958;2022-10-22T00:29:39;4.50;;;3.47;;
7191;SDS011;3637;51.494;11.958;2022-10-22T00:32:41;4.27;;;3.70;;
7191;SDS011;3637;51.494;11.958;2022-10-22T00:35:43;5.07;;;3.33;;
7191;SDS011;3637;51.494;11.958;2022-10-22T00:38:45;4.37;;;3.47;;
7191;SDS011;3637;51.494;11.958;2022-10-22T00:41:49;3.70;;;3.20;;
7191;SDS011;3637;51.494;11.958;2022-10-22T00:48:23;4.00;;;3.33;;
7191;SDS011;3637;51.494;11.958;2022-10-22T00:51:29;4.63;;;3.67;;
7191;SDS011;3637;51.494;11.958;2022-10-22T00:54:34;3.57;;;3.10;;
7191;SDS011;3637;51.494;11.958;2022-10-22T00:57:38;7.90;;;3.13;;
7191;SDS011;3637;51.494;11.958;2022-10-22T01:00:40;3.93;;;3.50;;
7191;SDS011;3637;51.494;11.958;2022-10-22T01:03:43;3.63;;;3.30;;
7191;SDS011;3637;51.494;11.958;2022-10-22T01:06:45;3.83;;;3.30;;
7191;SDS011;3637;51.494;11.958;2022-10-22T01:09:49;7.87;;;3.90;;
7191;SDS011;3637;51.494;11.958;2022-10-22T01:13:04;5.17;;;3.93;;
7191;SDS011;3637;51.494;11.958;2022-10-22T01:16:18;5.10;;;3.73;;
7191;SDS011;3637;51.494;11.958;2022-10-22T01:19:34;3.93;;;3.30;;
7191;SDS011;3637;51.494;11.958;2022-10-22T01:22:54;5.87;;;3.40;;
7191;SDS011;3637;51.494;11.958;2022-10-22T01:26:03;4.23;;;3.00;;
7191;SDS011;3637;51.494;11.958;2022-10-22T01:29:14;5.30;;;3.67;;
7191;SDS011;3637;51.494;11.958;2022-10-22T01:32:21;3.80;;;3.47;;
7191;SDS011;3637;51.494;11.958;2022-10-22T01:35:26;3.97;;;3.30;;
7191;SDS011;3637;51.494;11.958;2022-10-22T01:38:29;4.10;;;3.23;;
7191;SDS011;3637;51.494;11.958;2022-10-22T01:41:33;3.77;;;3.37;;
7191;SDS011;3637;51.494;11.958;2022-10-22T01:44:36;4.07;;;3.33;;
7191;SDS011;3637;51.494;11.958;2022-10-22T01:47:42;3.87;;;3.30;;
7191;SDS011;3637;51.494;11.958;2022-10-22T01:51:00;4.60;;;3.30;;
7191;SDS011;3637;51.494;11.958;2022-10-22T01:54:24;4.00;;;3.30;;
7191;SDS011;3637;51.494;11.958;2022-10-22T01:57:32;3.87;;;3.47;;
7191;SDS011;3637;51.494;11.958;2022-10-22T02:00:45;3.40;;;3.10;;
7191;SDS011;3637;51.494;11.958;2022-10-22T02:03:55;4.70;;;3.33;;
7191;SDS011;3637;51.494;11.958;2022-10-22T02:07:03;3.70;;;3.10;;
7191;SDS011;3637;51.494;11.958;2022-10-22T02:10:08;3.60;;;3.13;;
7191;SDS011;3637;51.494;11.958;2022-10-22T02:13:13;3.77;;;2.93;;
7191;SDS011;3637;51.494;11.958;2022-10-22T02:16:22;3.77;;;3.23;;
7191;SDS011;3637;51.494;11.958;2022-10-22T02:19:29;3.97;;;3.13;;
7191;SDS011;3637;51.494;11.958;2022-10-22T02:22:38;5.30;;;3.50;;
7191;SDS011;3637;51.494;11.958;2022-10-22T02:25:41;4.27;;;3.20;;
7191;SDS011;3637;51.494;11.958;2022-10-22T02:28:50;3.50;;;3.20;;
7191;SDS011;3637;51.494;11.958;2022-10-22T02:31:59;6.63;;;3.40;;
7191;SDS011;3637;51.494;11.958;2022-10-22T02:35:03;4.27;;;3.20;;
7191;SDS011;3637;51.494;11.958;2022-10-22T02:38:07;3.20;;;2.90;;
7191;SDS011;3637;51.494;11.958;2022-10-22T02:41:10;3.47;;;3.10;;
7191;SDS011;3637;51.494;11.958;2022-10-22T02:44:12;4.30;;;3.30;;
7191;SDS011;3637;51.494;11.958;2022-10-22T02:47:15;4.43;;;3.07;;
7191;SDS011;3637;51.494;11.958;2022-10-22T02:50:17;3.97;;;3.30;;
7191;SDS011;3637;51.494;11.958;2022-10-22T02:53:19;3.87;;;3.47;;
7191;SDS011;3637;51.494;11.958;2022-10-22T02:56:21;3.67;;;3.20;;
7191;SDS011;3637;51.494;11.958;2022-10-22T02:59:23;3.73;;;3.07;;
7191;SDS011;3637;51.494;11.958;2022-10-22T03:02:27;3.10;;;2.80;;
7191;SDS011;3637;51.494;11.958;2022-10-22T03:05:29;3.60;;;3.20;;
7191;SDS011;3637;51.494;11.958;2022-10-22T03:08:30;4.07;;;3.23;;
7191;SDS011;3637;51.494;11.958;2022-10-22T03:11:32;3.90;;;3.20;;
7191;SDS011;3637;51.494;11.958;2022-10-22T03:14:34;4.07;;;3.53;;
7191;SDS011;3637;51.494;11.958;2022-10-22T03:17:37;4.40;;;3.40;;
7191;SDS011;3637;51.494;11.958;2022-10-22T03:20:39;3.27;;;2.90;;
7191;SDS011;3637;51.494;11.958;2022-10-22T03:23:41;3.30;;;3.00;;
7191;SDS011;3637;51.494;11.958;2022-10-22T03:26:44;3.57;;;3.03;;
7191;SDS011;3637;51.494;11.958;2022-10-22T03:29:47;4.80;;;3.77;;
7191;SDS011;3637;51.494;11.958;2022-10-22T03:32:53;5.00;;;3.60;;
7191;SDS011;3637;51.494;11.958;2022-10-22T03:35:55;3.87;;;3.30;;
7191;SDS011;3637;51.494;11.958;2022-10-22T03:38:57;6.57;;;3.70;;
7191;SDS011;3637;51.494;11.958;2022-10-22T03:41:59;3.47;;;3.00;;
7191;SDS011;3637;51.494;11.958;2022-10-22T03:45:02;4.87;;;3.90;;
7191;SDS011;3637;51.494;11.958;2022-10-22T03:48:06;3.80;;;3.40;;
7191;SDS011;3637;51.494;11.958;2022-10-22T03:51:08;4.00;;;3.40;;
7191;SDS011;3637;51.494;11.958;2022-10-22T03:54:10;3.50;;;3.10;;
7191;SDS011;3637;51.494;11.958;2022-10-22T03:57:12;3.33;;;2.93;;
7191;SDS011;3637;51.494;11.958;2022-10-22T04:00:15;3.80;;;3.27;;
7191;SDS011;3637;51.494;11.958;2022-10-22T04:03:19;4.40;;;3.03;;
7191;SDS011;3637;51.494;11.958;2022-10-22T04:06:21;3.90;;;3.30;;
7191;SDS011;3637;51.494;11.958;2022-10-22T04:09:23;5.40;;;3.33;;
7191;SDS011;3637;51.494;11.958;2022-10-22T04:12:25;3.73;;;3.17;;
7191;SDS011;3637;51.494;11.958;2022-10-22T04:15:27;5.50;;;3.13;;
7191;SDS011;3637;51.494;11.958;2022-10-22T04:18:30;3.40;;;3.10;;
7191;SDS011;3637;51.494;11.958;2022-10-22T04:21:32;3.50;;;3.20;;
7191;SDS011;3637;51.494;11.958;2022-10-22T04:24:34;4.47;;;3.63;;
7191;SDS011;3637;51.494;11.958;2022-10-22T04:27:37;4.50;;;3.63;;
7191;SDS011;3637;51.494;11.958;2022-10-22T04:30:39;3.50;;;3.00;;
7191;SDS011;3637;51.494;11.958;2022-10-22T04:33:42;4.00;;;3.60;;
7191;SDS011;3637;51.494;11.958;2022-10-22T04:36:44;3.43;;;3.13;;
7191;SDS011;3637;51.494;11.958;2022-10-22T04:39:46;5.57;;;3.33;;
7191;SDS011;3637;51.494;11.958;2022-10-22T04:42:48;4.00;;;3.40;;
7191;SDS011;3637;51.494;11.958;2022-10-22T04:45:50;5.10;;;3.20;;
7191;SDS011;3637;51.494;11.958;2022-10-22T04:48:53;3.50;;;3.20;;
7191;SDS011;3637;51.494;11.958;2022-10-22T04:51:56;3.53;;;3.10;;
7191;SDS011;3637;51.494;11.958;2022-10-22T04:54:58;4.47;;;3.50;;
7191;SDS011;3637;51.494;11.958;2022-10-22T04:58:00;4.33;;;3.70;;
7191;SDS011;3637;51.494;11.958;2022-10-22T05:01:07;4.03;;;3.07;;
7191;SDS011;3637;51.494;11.958;2022-10-22T05:04:12;5.77;;;3.23;;
7191;SDS011;3637;51.494;11.958;2022-10-22T05:07:18;3.80;;;3.20;;
7191;SDS011;3637;51.494;11.958;2022-10-22T05:10:20;3.70;;;3.30;;
7191;SDS011;3637;51.494;11.958;2022-10-22T05:13:22;6.53;;;3.53;;
7191;SDS011;3637;51.494;11.958;2022-10-22T05:16:24;5.17;;;3.63;;
7191;SDS011;3637;51.494;11.958;2022-10-22T05:19:29;3.43;;;3.00;;
7191;SDS011;3637;51.494;11.958;2022-10-22T05:22:32;4.20;;;3.43;;
7191;SDS011;3637;51.494;11.958;2022-10-22T05:25:36;3.87;;;3.43;;
7191;SDS011;3637;51.494;11.958;2022-10-22T05:28:38;4.13;;;3.23;;
7191;SDS011;3637;51.494;11.958;2022-10-22T05:31:40;4.03;;;3.47;;
7191;SDS011;3637;51.494;11.958;2022-10-22T05:34:44;4.53;;;3.70;;
7191;SDS011;3637;51.494;11.958;2022-10-22T05:37:45;5.67;;;3.40;;
7191;SDS011;3637;51.494;11.958;2022-10-22T05:40:48;8.67;;;3.87;;
7191;SDS011;3637;51.494;11.958;2022-10-22T05:44:00;6.27;;;3.90;;
7191;SDS011;3637;51.494;11.958;2022-10-22T05:47:02;4.73;;;4.23;;
7191;SDS011;3637;51.494;11.958;2022-10-22T05:50:06;6.17;;;4.80;;
7191;SDS011;3637;51.494;11.958;2022-10-22T05:53:08;8.13;;;3.93;;
7191;SDS011;3637;51.494;11.958;2022-10-22T05:56:11;8.63;;;4.73;;
7191;SDS011;3637;51.494;11.958;2022-10-22T05:59:14;6.90;;;3.97;;
7191;SDS011;3637;51.494;11.958;2022-10-22T06:02:16;5.60;;;4.17;;
7191;SDS011;3637;51.494;11.958;2022-10-22T06:05:19;6.17;;;4.90;;
7191;SDS011;3637;51.494;11.958;2022-10-22T06:08:21;6.47;;;5.23;;
7191;SDS011;3637;51.494;11.958;2022-10-22T06:11:23;6.10;;;4.40;;
7191;SDS011;3637;51.494;11.958;2022-10-22T06:14:25;5.73;;;4.63;;
7191;SDS011;3637;51.494;11.958;2022-10-22T06:17:28;6.87;;;4.63;;
7191;SDS011;3637;51.494;11.958;2022-10-22T06:20:31;7.50;;;4.53;;
7191;SDS011;3637;51.494;11.958;2022-10-22T06:23:34;7.80;;;4.80;;
7191;SDS011;3637;51.494;11.958;2022-10-22T06:26:36;6.80;;;4.80;;
7191;SDS011;3637;51.494;11.958;2022-10-22T06:29:38;7.30;;;5.23;;
7191;SDS011;3637;51.494;11.958;2022-10-22T06:32:40;6.27;;;4.50;;
7191;SDS011;3637;51.494;11.958;2022-10-22T06:35:44;6.27;;;4.77;;
7191;SDS011;3637;51.494;11.958;2022-10-22T06:38:50;12.87;;;5.90;;
7191;SDS011;3637;51.494;11.958;2022-10-22T06:41:52;7.10;;;5.50;;
7191;SDS011;3637;51.494;11.958;2022-10-22T06:44:54;7.47;;;5.80;;
7191;SDS011;3637;51.494;11.958;2022-10-22T06:47:56;6.17;;;5.03;;
7191;SDS011;3637;51.494;11.958;2022-10-22T06:51:01;7.87;;;4.83;;
7191;SDS011;3637;51.494;11.958;2022-10-22T06:54:04;7.47;;;5.43;;
7191;SDS011;3637;51.494;11.958;2022-10-22T06:57:06;7.33;;;5.27;;
7191;SDS011;3637;51.494;11.958;2022-10-22T07:00:08;6.87;;;5.57;;
7191;SDS011;3637;51.494;11.958;2022-10-22T07:03:11;7.40;;;5.80;;
7191;SDS011;3637;51.494;11.958;2022-10-22T07:06:15;6.97;;;5.23;;
7191;SDS011;3637;51.494;11.958;2022-10-22T07:09:17;6.97;;;5.00;;
7191;SDS011;3637;51.494;11.958;2022-10-22T07:12:19;6.70;;;4.87;;
7191;SDS011;3637;51.494;11.958;2022-10-22T07:15:21;6.17;;;4.80;;
7191;SDS011;3637;51.494;11.958;2022-10-22T07:18:23;8.33;;;5.90;;
7191;SDS011;3637;51.494;11.958;2022-10-22T07:21:28;6.63;;;5.07;;
7191;SDS011;3637;51.494;11.958;2022-10-22T07:24:31;5.97;;;5.03;;
7191;SDS011;3637;51.494;11.958;2022-10-22T07:27:33;5.90;;;5.20;;
7191;SDS011;3637;51.494;11.958;2022-10-22T07:30:35;7.97;;;5.77;;
7191;SDS011;3637;51.494;11.958;2022-10-22T07:33:39;7.70;;;5.53;;
7191;SDS011;3637;51.494;11.958;2022-10-22T07:36:42;6.17;;;5.47;;
7191;SDS011;3637;51.494;11.958;2022-10-22T07:39:44;6.83;;;5.40;;
7191;SDS011;3637;51.494;11.958;2022-10-22T07:42:47;6.63;;;5.27;;
7191;SDS011;3637;51.494;11.958;2022-10-22T07:45:49;8.73;;;6.17;;
7191;SDS011;3637;51.494;11.958;2022-10-22T07:48:52;6.47;;;5.57;;
7191;SDS011;3637;51.494;11.958;2022-10-22T07:51:55;6.77;;;5.60;;
7191;SDS011;3637;51.494;11.958;2022-10-22T07:54:57;6.63;;;5.50;;
7191;SDS011;3637;51.494;11.958;2022-10-22T07:57:59;7.23;;;5.80;;
7191;SDS011;3637;51.494;11.958;2022-10-22T08:01:01;7.33;;;5.73;;
7191;SDS011;3637;51.494;11.958;2022-10-22T08:04:05;7.30;;;5.37;;
7191;SDS011;3637;51.494;11.958;2022-10-22T08:07:10;10.17;;;6.13;;
7191;SDS011;3637;51.494;11.958;2022-10-22T08:10:12;7.87;;;5.97;;
7191;SDS011;3637;51.494;11.958;2022-10-22T08:13:14;8.23;;;6.77;;
7191;SDS011;3637;51.494;11.958;2022-10-22T08:16:16;8.47;;;6.57;;
7191;SDS011;3637;51.494;11.958;2022-10-22T08:19:18;10.07;;;6.30;;
7191;SDS011;3637;51.494;11.958;2022-10-22T08:22:21;9.47;;;6.43;;
7191;SDS011;3637;51.494;11.958;2022-10-22T08:25:23;7.40;;;5.83;;
7191;SDS011;3637;51.494;11.958;2022-10-22T08:28:27;8.00;;;6.27;;
7191;SDS011;3637;51.494;11.958;2022-10-22T08:31:31;8.10;;;6.07;;
7191;SDS011;3637;51.494;11.958;2022-10-22T08:34:34;9.83;;;6.63;;
7191;SDS011;3637;51.494;11.958;2022-10-22T08:37:37;9.50;;;6.47;;
7191;SDS011;3637;51.494;11.958;2022-10-22T08:40:39;10.07;;;6.03;;
7191;SDS011;3637;51.494;11.958;2022-10-22T08:47:14;8.77;;;5.57;;
7191;SDS011;3637;51.494;11.958;2022-10-22T08:50:32;7.87;;;5.40;;
7191;SDS011;3637;51.494;11.958;2022-10-22T08:53:40;6.43;;;5.53;;
7191;SDS011;3637;51.494;11.958;2022-10-22T08:56:54;8.30;;;5.40;;
7191;SDS011;3637;51.494;11.958;2022-10-22T09:00:14;7.63;;;5.23;;
7191;SDS011;3637;51.494;11.958;2022-10-22T09:03:24;6.10;;;5.50;;
7191;SDS011;3637;51.494;11.958;2022-10-22T09:06:36;5.93;;;5.10;;
7191;SDS011;3637;51.494;11.958;2022-10-22T09:09:46;8.43;;;5.10;;
7191;SDS011;3637;51.494;11.958;2022-10-22T09:12:50;5.70;;;4.87;;
7191;SDS011;3637;51.494;11.958;2022-10-22T09:15:54;5.83;;;4.57;;
7191;SDS011;3637;51.494;11.958;2022-10-22T09:19:02;4.47;;;4.07;;
7191;SDS011;3637;51.494;11.958;2022-10-22T09:22:16;5.57;;;4.33;;
7191;SDS011;3637;51.494;11.958;2022-10-22T09:25:26;4.17;;;3.47;;
7191;SDS011;3637;51.494;11.958;2022-10-22T09:28:29;4.43;;;3.40;;
7191;SDS011;3637;51.494;11.958;2022-10-22T09:31:31;4.43;;;3.20;;
7191;SDS011;3637;51.494;11.958;2022-10-22T09:34:34;3.73;;;3.20;;
7191;SDS011;3637;51.494;11.958;2022-10-22T09:37:36;3.70;;;3.00;;
7191;SDS011;3637;51.494;11.958;2022-10-22T09:40:50;4.07;;;2.90;;
7191;SDS011;3637;51.494;11.958;2022-10-22T09:43:54;2.83;;;2.50;;
7191;SDS011;3637;51.494;11.958;2022-10-22T09:46:56;2.87;;;2.40;;
7191;SDS011;3637;51.494;11.958;2022-10-22T09:50:06;3.83;;;2.33;;
7191;SDS011;3637;51.494;11.958;2022-10-22T09:53:22;3.40;;;2.30;;
7191;SDS011;3637;51.494;11.958;2022-10-22T09:56:32;2.20;;;2.00;;
7191;SDS011;3637;51.494;11.958;2022-10-22T09:59:36;3.53;;;2.23;;
7191;SDS011;3637;51.494;11.958;2022-10-22T10:02:40;2.43;;;2.07;;
7191;SDS011;3637;51.494;11.958;2022-10-22T10:05:45;2.40;;;1.90;;
7191;SDS011;3637;51.494;11.958;2022-10-22T10:08:48;2.30;;;2.10;;
7191;SDS011;3637;51.494;11.958;2022-10-22T10:11:52;2.63;;;2.20;;
7191;SDS011;3637;51.494;11.958;2022-10-22T10:15:02;4.33;;;2.03;;
7191;SDS011;3637;51.494;11.958;2022-10-22T10:18:16;2.20;;;2.00;;
7191;SDS011;3637;51.494;11.958;2022-10-22T10:21:32;3.03;;;2.20;;
7191;SDS011;3637;51.494;11.958;2022-10-22T10:24:48;2.20;;;2.00;;
7191;SDS011;3637;51.494;11.958;2022-10-22T10:28:02;2.27;;;2.07;;
7191;SDS011;3637;51.494;11.958;2022-10-22T10:31:14;2.80;;;2.23;;
7191;SDS011;3637;51.494;11.958;2022-10-22T10:34:27;2.43;;;2.10;;
7191;SDS011;3637;51.494;11.958;2022-10-22T10:37:39;2.50;;;2.23;;
7191;SDS011;3637;51.494;11.958;2022-10-22T10:40:47;3.57;;;2.20;;
7191;SDS011;3637;51.494;11.958;2022-10-22T10:44:02;2.47;;;2.17;;
7191;SDS011;3637;51.494;11.958;2022-10-22T10:47:26;2.67;;;2.10;;
7191;SDS011;3637;51.494;11.958;2022-10-22T10:50:49;1.70;;;1.60;;
7191;SDS011;3637;51.494;11.958;2022-10-22T10:54:03;2.13;;;1.93;;
7191;SDS011;3637;51.494;11.958;2022-10-22T10:57:18;1.83;;;1.73;;
7191;SDS011;3637;51.494;11.958;2022-10-22T11:00:33;2.40;;;1.80;;
7191;SDS011;3637;51.494;11.958;2022-10-22T11:03:46;2.80;;;1.70;;
7191;SDS011;3637;51.494;11.958;2022-10-22T11:07:04;2.13;;;1.63;;
7191;SDS011;3637;51.494;11.958;2022-10-22T11:10:12;2.63;;;1.87;;
7191;SDS011;3637;51.494;11.958;2022-10-22T11:13:23;1.73;;;1.50;;
7191;SDS011;3637;51.494;11.958;2022-10-22T11:16:33;3.90;;;1.53;;
7191;SDS011;3637;51.494;11.958;2022-10-22T11:19:40;3.03;;;1.70;;
7191;SDS011;3637;51.494;11.958;2022-10-22T11:22:46;2.97;;;1.70;;
7191;SDS011;3637;51.494;11.958;2022-10-22T11:25:52;3.50;;;1.70;;
7191;SDS011;3637;51.494;11.958;2022-10-22T11:28:54;2.13;;;1.37;;
7191;SDS011;3637;51.494;11.958;2022-10-22T11:32:01;1.63;;;1.43;;
7191;SDS011;3637;51.494;11.958;2022-10-22T11:35:06;1.57;;;1.47;;
7191;SDS011;3637;51.494;11.958;2022-10-22T11:38:13;1.60;;;1.37;;
7191;SDS011;3637;51.494;11.958;2022-10-22T11:41:18;2.23;;;1.50;;
7191;SDS011;3637;51.494;11.958;2022-10-22T11:44:24;1.50;;;1.40;;
7191;SDS011;3637;51.494;11.958;2022-10-22T11:47:32;1.50;;;1.30;;
7191;SDS011;3637;51.494;11.958;2022-10-22T11:50:46;1.60;;;1.50;;
7191;SDS011;3637;51.494;11.958;2022-10-22T11:53:53;1.93;;;1.40;;
7191;SDS011;3637;51.494;11.958;2022-10-22T11:56:57;5.33;;;1.50;;
7191;SDS011;3637;51.494;11.958;2022-10-22T12:00:31;1.90;;;1.47;;
7191;SDS011;3637;51.494;11.958;2022-10-22T12:03:42;1.40;;;1.30;;
7191;SDS011;3637;51.494;11.958;2022-10-22T12:06:52;2.00;;;1.70;;
7191;SDS011;3637;51.494;11.958;2022-10-22T12:09:58;1.50;;;1.40;;
7191;SDS011;3637;51.494;11.958;2022-10-22T12:13:09;1.50;;;1.37;;
7191;SDS011;3637;51.494;11.958;2022-10-22T12:16:23;2.43;;;1.60;;
7191;SDS011;3637;51.494;11.958;2022-10-22T12:19:28;1.70;;;1.60;;
7191;SDS011;3637;51.494;11.958;2022-10-22T12:22:32;1.63;;;1.50;;
7191;SDS011;3637;51.494;11.958;2022-10-22T12:25:36;1.73;;;1.63;;
7191;SDS011;3637;51.494;11.958;2022-10-22T12:28:38;1.90;;;1.70;;
7191;SDS011;3637;51.494;11.958;2022-10-22T12:31:41;2.90;;;1.67;;
7191;SDS011;3637;51.494;11.958;2022-10-22T12:34:46;1.60;;;1.50;;
7191;SDS011;3637;51.494;11.958;2022-10-22T12:37:49;2.50;;;1.80;;
7191;SDS011;3637;51.494;11.958;2022-10-22T12:40:53;2.80;;;1.53;;
7191;SDS011;3637;51.494;11.958;2022-10-22T12:44:00;3.07;;;1.50;;
7191;SDS011;3637;51.494;11.958;2022-10-22T12:47:04;2.40;;;1.70;;
7191;SDS011;3637;51.494;11.958;2022-10-22T12:50:13;2.70;;;1.67;;
7191;SDS011;3637;51.494;11.958;2022-10-22T12:53:18;2.73;;;1.60;;
7191;SDS011;3637;51.494;11.958;2022-10-22T12:56:24;2.60;;;1.60;;
7191;SDS011;3637;51.494;11.958;2022-10-22T12:59:29;1.70;;;1.60;;
7191;SDS011;3637;51.494;11.958;2022-10-22T13:02:35;2.40;;;1.47;;
7191;SDS011;3637;51.494;11.958;2022-10-22T13:05:38;1.60;;;1.50;;
7191;SDS011;3637;51.494;11.958;2022-10-22T13:08:40;1.60;;;1.50;;
7191;SDS011;3637;51.494;11.958;2022-10-22T13:11:47;2.63;;;1.73;;
7191;SDS011;3637;51.494;11.958;2022-10-22T13:14:51;1.77;;;1.67;;
7191;SDS011;3637;51.494;11.958;2022-10-22T13:18:00;2.20;;;1.80;;
7191;SDS011;3637;51.494;11.958;2022-10-22T13:21:04;2.23;;;1.60;;
7191;SDS011;3637;51.494;11.958;2022-10-22T13:24:18;3.83;;;1.70;;
7191;SDS011;3637;51.494;11.958;2022-10-22T13:27:21;3.40;;;2.00;;
7191;SDS011;3637;51.494;11.958;2022-10-22T13:30:24;2.93;;;1.70;;
7191;SDS011;3637;51.494;11.958;2022-10-22T13:33:28;2.13;;;1.57;;
7191;SDS011;3637;51.494;11.958;2022-10-22T13:36:35;2.83;;;1.97;;
7191;SDS011;3637;51.494;11.958;2022-10-22T13:39:37;1.93;;;1.70;;
7191;SDS011;3637;51.494;11.958;2022-10-22T13:42:39;1.70;;;1.60;;
7191;SDS011;3637;51.494;11.958;2022-10-22T13:45:41;3.20;;;1.87;;
7191;SDS011;3637;51.494;11.958;2022-10-22T13:48:43;2.07;;;1.87;;
7191;SDS011;3637;51.494;11.958;2022-10-22T13:51:48;2.30;;;1.70;;
7191;SDS011;3637;51.494;11.958;2022-10-22T13:54:51;2.13;;;1.93;;
7191;SDS011;3637;51.494;11.958;2022-10-22T13:57:54;2.70;;;2.20;;
7191;SDS011;3637;51.494;11.958;2022-10-22T14:00:57;3.77;;;2.30;;
7191;SDS011;3637;51.494;11.958;2022-10-22T14:04:02;3.57;;;1.80;;
7191;SDS011;3637;51.494;11.958;2022-10-22T14:07:08;2.00;;;1.80;;
7191;SDS011;3637;51.494;11.958;2022-10-22T14:10:15;3.53;;;2.30;;
7191;SDS011;3637;51.494;11.958;2022-10-22T14:13:19;2.10;;;1.70;;
7191;SDS011;3637;51.494;11.958;2022-10-22T14:16:22;4.07;;;1.90;;
7191;SDS011;3637;51.494;11.958;2022-10-22T14:19:28;3.40;;;2.20;;
7191;SDS011;3637;51.494;11.958;2022-10-22T14:22:33;3.33;;;1.97;;
7191;SDS011;3637;51.494;11.958;2022-10-22T14:25:34;2.93;;;2.00;;
7191;SDS011;3637;51.494;11.958;2022-10-22T14:28:36;3.80;;;2.07;;
7191;SDS011;3637;51.494;11.958;2022-10-22T14:31:38;4.67;;;2.40;;
7191;SDS011;3637;51.494;11.958;2022-10-22T14:34:42;3.80;;;2.20;;
7191;SDS011;3637;51.494;11.958;2022-10-22T14:37:47;2.90;;;2.20;;
7191;SDS011;3637;51.494;11.958;2022-10-22T14:40:49;2.23;;;1.90;;
7191;SDS011;3637;51.494;11.958;2022-10-22T14:44:02;2.40;;;1.93;;
7191;SDS011;3637;51.494;11.958;2022-10-22T14:47:04;5.17;;;2.30;;
7191;SDS011;3637;51.494;11.958;2022-10-22T14:50:06;2.97;;;2.20;;
7191;SDS011;3637;51.494;11.958;2022-10-22T14:53:10;5.53;;;2.20;;
7191;SDS011;3637;51.494;11.958;2022-10-22T14:56:14;4.23;;;2.50;;
7191;SDS011;3637;51.494;11.958;2022-10-22T14:59:17;3.63;;;2.20;;
7191;SDS011;3637;51.494;11.958;2022-10-22T15:02:19;3.33;;;2.30;;
7191;SDS011;3637;51.494;11.958;2022-10-22T15:05:21;2.40;;;2.00;;
7191;SDS011;3637;51.494;11.958;2022-10-22T15:08:25;4.37;;;1.90;;
7191;SDS011;3637;51.494;11.958;2022-10-22T15:11:30;2.77;;;2.17;;
7191;SDS011;3637;51.494;11.958;2022-10-22T15:14:32;2.30;;;1.90;;
7191;SDS011;3637;51.494;11.958;2022-10-22T15:17:34;2.73;;;1.70;;
7191;SDS011;3637;51.494;11.958;2022-10-22T15:20:36;2.10;;;1.90;;
7191;SDS011;3637;51.494;11.958;2022-10-22T15:23:39;2.20;;;1.90;;
7191;SDS011;3637;51.494;11.958;2022-10-22T15:26:41;5.67;;;2.13;;
7191;SDS011;3637;51.494;11.958;2022-10-22T15:29:43;2.17;;;1.97;;
7191;SDS011;3637;51.494;11.958;2022-10-22T15:32:45;4.57;;;2.30;;
7191;SDS011;3637;51.494;11.958;2022-10-22T15:35:47;3.70;;;2.10;;
7191;SDS011;3637;51.494;11.958;2022-10-22T15:38:50;2.30;;;1.93;;
7191;SDS011;3637;51.494;11.958;2022-10-22T15:41:52;2.40;;;2.00;;
7191;SDS011;3637;51.494;11.958;2022-10-22T15:44:56;3.90;;;1.90;;
7191;SDS011;3637;51.494;11.958;2022-10-22T15:47:58;3.60;;;2.10;;
7191;SDS011;3637;51.494;11.958;2022-10-22T15:51:02;4.20;;;2.23;;
7191;SDS011;3637;51.494;11.958;2022-10-22T15:54:11;5.20;;;1.83;;
7191;SDS011;3637;51.494;11.958;2022-10-22T15:57:15;2.43;;;2.10;;
7191;SDS011;3637;51.494;11.958;2022-10-22T16:00:17;2.67;;;2.10;;
7191;SDS011;3637;51.494;11.958;2022-10-22T16:03:19;2.53;;;2.00;;
7191;SDS011;3637;51.494;11.958;2022-10-22T16:06:21;2.80;;;2.13;;
7191;SDS011;3637;51.494;11.958;2022-10-22T16:09:25;2.27;;;2.07;;
7191;SDS011;3637;51.494;11.958;2022-10-22T16:12:30;2.23;;;2.03;;
7191;SDS011;3637;51.494;11.958;2022-10-22T16:15:33;5.67;;;2.13;;
7191;SDS011;3637;51.494;11.958;2022-10-22T16:18:35;2.90;;;2.20;;
7191;SDS011;3637;51.494;11.958;2022-10-22T16:21:37;4.50;;;2.20;;
7191;SDS011;3637;51.494;11.958;2022-10-22T16:24:41;2.80;;;2.07;;
7191;SDS011;3637;51.494;11.958;2022-10-22T16:27:43;4.23;;;2.47;;
7191;SDS011;3637;51.494;11.958;2022-10-22T16:30:50;2.50;;;2.10;;
7191;SDS011;3637;51.494;11.958;2022-10-22T16:33:52;4.23;;;2.37;;
7191;SDS011;3637;51.494;11.958;2022-10-22T16:36:57;6.10;;;3.60;;
7191;SDS011;3637;51.494;11.958;2022-10-22T16:40:01;2.47;;;2.27;;
7191;SDS011;3637;51.494;11.958;2022-10-22T16:43:02;2.80;;;2.50;;
7191;SDS011;3637;51.494;11.958;2022-10-22T16:46:05;2.63;;;2.23;;
7191;SDS011;3637;51.494;11.958;2022-10-22T16:49:07;2.53;;;2.33;;
7191;SDS011;3637;51.494;11.958;2022-10-22T16:52:09;2.93;;;2.10;;
7191;SDS011;3637;51.494;11.958;2022-10-22T16:55:12;4.23;;;2.50;;
7191;SDS011;3637;51.494;11.958;2022-10-22T16:58:14;6.03;;;2.50;;
7191;SDS011;3637;51.494;11.958;2022-10-22T17:01:17;4.63;;;2.70;;
7191;SDS011;3637;51.494;11.958;2022-10-22T17:04:20;2.73;;;2.30;;
7191;SDS011;3637;51.494;11.958;2022-10-22T17:07:22;3.27;;;2.40;;
7191;SDS011;3637;51.494;11.958;2022-10-22T17:10:25;3.27;;;2.50;;
7191;SDS011;3637;51.494;11.958;2022-10-22T17:13:28;4.50;;;2.50;;
7191;SDS011;3637;51.494;11.958;2022-10-22T17:16:29;6.00;;;2.83;;
7191;SDS011;3637;51.494;11.958;2022-10-22T17:19:31;3.90;;;2.80;;
7191;SDS011;3637;51.494;11.958;2022-10-22T17:22:37;3.67;;;2.70;;
7191;SDS011;3637;51.494;11.958;2022-10-22T17:25:41;5.00;;;3.00;;
7191;SDS011;3637;51.494;11.958;2022-10-22T17:28:44;5.67;;;3.33;;
7191;SDS011;3637;51.494;11.958;2022-10-22T17:31:45;4.10;;;3.20;;
7191;SDS011;3637;51.494;11.958;2022-10-22T17:34:49;4.80;;;3.07;;
7191;SDS011;3637;51.494;11.958;2022-10-22T17:37:51;3.73;;;2.53;;
7191;SDS011;3637;51.494;11.958;2022-10-22T17:41:09;3.50;;;2.80;;
7191;SDS011;3637;51.494;11.958;2022-10-22T17:44:16;6.37;;;3.20;;
7191;SDS011;3637;51.494;11.958;2022-10-22T17:47:21;5.53;;;2.97;;
7191;SDS011;3637;51.494;11.958;2022-10-22T17:50:23;5.53;;;2.53;;
7191;SDS011;3637;51.494;11.958;2022-10-22T17:53:25;4.53;;;2.53;;
7191;SDS011;3637;51.494;11.958;2022-10-22T17:56:28;2.30;;;2.10;;
7191;SDS011;3637;51.494;11.958;2022-10-22T17:59:30;4.47;;;2.37;;
7191;SDS011;3637;51.494;11.958;2022-10-22T18:02:33;5.17;;;2.50;;
7191;SDS011;3637;51.494;11.958;2022-10-22T18:05:35;5.63;;;2.50;;
7191;SDS011;3637;51.494;11.958;2022-10-22T18:08:37;4.43;;;2.60;;
7191;SDS011;3637;51.494;11.958;2022-10-22T18:11:40;4.97;;;2.20;;
7191;SDS011;3637;51.494;11.958;2022-10-22T18:14:42;2.50;;;2.20;;
7191;SDS011;3637;51.494;11.958;2022-10-22T18:17:45;2.47;;;2.00;;
7191;SDS011;3637;51.494;11.958;2022-10-22T18:20:49;3.43;;;2.73;;
7191;SDS011;3637;51.494;11.958;2022-10-22T18:23:51;3.00;;;2.50;;
7191;SDS011;3637;51.494;11.958;2022-10-22T18:26:54;3.93;;;2.03;;
7191;SDS011;3637;51.494;11.958;2022-10-22T18:29:56;3.07;;;2.37;;
7191;SDS011;3637;51.494;11.958;2022-10-22T18:32:58;2.40;;;2.00;;
7191;SDS011;3637;51.494;11.958;2022-10-22T18:36:02;3.90;;;2.60;;
7191;SDS011;3637;51.494;11.958;2022-10-22T18:39:05;3.63;;;2.47;;
7191;SDS011;3637;51.494;11.958;2022-10-22T18:42:08;2.50;;;2.30;;
7191;SDS011;3637;51.494;11.958;2022-10-22T18:45:10;3.67;;;2.37;;
7191;SDS011;3637;51.494;11.958;2022-10-22T18:48:13;4.17;;;2.70;;
7191;SDS011;3637;51.494;11.958;2022-10-22T18:51:15;3.03;;;2.37;;
7191;SDS011;3637;51.494;11.958;2022-10-22T18:54:17;3.03;;;2.73;;
7191;SDS011;3637;51.494;11.958;2022-10-22T18:57:21;3.43;;;2.63;;